sensor_id;sensor_type;location;lat;lon;timestamp;temperature;humidity
41310;DHT22;27057;51.438;-0.010;2023-07-30T00:00:09;17.20;99.90
41310;DHT22;27057;51.438;-0.010;2023-07-30T00:02:40;17.20;99.90
41310;DHT22;27057;51.438;-0.010;2023-07-30T00:05:09;17.20;99.90
41310;DHT22;27057;51.438;-0.010;2023-07-30T00:07:36;17.10;99.90
41310;DHT22;27057;51.438;-0.010;2023-07-30T00:10:04;17.10;99.90
41310;DHT22;27057;51.438;-0.010;2023-07-30T00:12:35;17.10;99.90
41310;DHT22;27057;51.438;-0.010;2023-07-30T00:15:02;17.10;99.90
41310;DHT22;27057;51.438;-0.010;2023-07-30T00:17:30;17.10;99.90
41310;DHT22;27057;51.438;-0.010;2023-07-30T00:19:58;17.10;99.90
41310;DHT22;27057;51.438;-0.010;2023-07-30T00:22:25;17.00;99.90
41310;DHT22;27057;51.438;-0.010;2023-07-30T00:24:53;17.10;99.90
41310;DHT22;27057;51.438;-0.010;2023-07-30T00:27:21;17.10;99.90
41310;DHT22;27057;51.438;-0.010;2023-07-30T00:29:50;17.10;99.90
41310;DHT22;27057;51.438;-0.010;2023-07-30T00:34:45;17.10;99.90
41310;DHT22;27057;51.438;-0.010;2023-07-30T00:37:13;17.10;99.90
41310;DHT22;27057;51.438;-0.010;2023-07-30T00:39:40;17.10;99.90
41310;DHT22;27057;51.438;-0.010;2023-07-30T00:42:14;17.10;99.90
41310;DHT22;27057;51.438;-0.010;2023-07-30T00:44:45;17.10;99.90
41310;DHT22;27057;51.438;-0.010;2023-07-30T00:47:16;17.10;99.90
41310;DHT22;27057;51.438;-0.010;2023-07-30T00:49:44;17.10;99.90
41310;DHT22;27057;51.438;-0.010;2023-07-30T00:52:16;17.40;99.90
41310;DHT22;27057;51.438;-0.010;2023-07-30T00:54:43;17.10;99.90
41310;DHT22;27057;51.438;-0.010;2023-07-30T00:57:12;17.10;99.90
41310;DHT22;27057;51.438;-0.010;2023-07-30T00:59:41;17.10;99.90
41310;DHT22;27057;51.438;-0.010;2023-07-30T01:02:09;17.10;99.90
41310;DHT22;27057;51.438;-0.010;2023-07-30T01:04:37;16.90;99.90
41310;DHT22;27057;51.438;-0.010;2023-07-30T01:07:06;17.00;99.90
41310;DHT22;27057;51.438;-0.010;2023-07-30T01:09:34;17.00;99.90
41310;DHT22;27057;51.438;-0.010;2023-07-30T01:12:03;17.00;99.90
41310;DHT22;27057;51.438;-0.010;2023-07-30T01:14:35;17.00;99.90
41310;DHT22;27057;51.438;-0.010;2023-07-30T01:17:05;16.90;99.90
41310;DHT22;27057;51.438;-0.010;2023-07-30T01:19:33;18.30;99.90
41310;DHT22;27057;51.438;-0.010;2023-07-30T01:22:00;16.90;99.90
41310;DHT22;27057;51.438;-0.010;2023-07-30T01:27:05;16.90;99.90
41310;DHT22;27057;51.438;-0.010;2023-07-30T01:32:08;17.10;99.90
41310;DHT22;27057;51.438;-0.010;2023-07-30T01:34:40;16.90;99.90
41310;DHT22;27057;51.438;-0.010;2023-07-30T01:37:12;16.90;99.90
41310;DHT22;27057;51.438;-0.010;2023-07-30T01:39:44;16.90;99.90
41310;DHT22;27057;51.438;-0.010;2023-07-30T01:42:12;16.90;99.90
41310;DHT22;27057;51.438;-0.010;2023-07-30T01:44:40;16.80;99.90
41310;DHT22;27057;51.438;-0.010;2023-07-30T01:47:09;16.80;99.90
41310;DHT22;27057;51.438;-0.010;2023-07-30T01:49:36;16.80;99.90
41310;DHT22;27057;51.438;-0.010;2023-07-30T01:52:04;16.80;99.90
41310;DHT22;27057;51.438;-0.010;2023-07-30T01:54:31;16.80;99.90
41310;DHT22;27057;51.438;-0.010;2023-07-30T01:57:00;16.70;99.90
41310;DHT22;27057;51.438;-0.010;2023-07-30T01:59:28;16.70;99.90
41310;DHT22;27057;51.438;-0.010;2023-07-30T02:01:55;16.70;99.90
41310;DHT22;27057;51.438;-0.010;2023-07-30T02:04:23;16.70;99.90
41310;DHT22;27057;51.438;-0.010;2023-07-30T02:06:51;16.70;99.90
41310;DHT22;27057;51.438;-0.010;2023-07-30T02:09:18;16.60;99.90
41310;DHT22;27057;51.438;-0.010;2023-07-30T02:11:46;16.60;99.90
41310;DHT22;27057;51.438;-0.010;2023-07-30T02:14:18;16.60;99.90
41310;DHT22;27057;51.438;-0.010;2023-07-30T02:16:48;16.60;99.90
41310;DHT22;27057;51.438;-0.010;2023-07-30T02:19:16;16.60;99.90
41310;DHT22;27057;51.438;-0.010;2023-07-30T02:21:44;16.60;99.90
41310;DHT22;27057;51.438;-0.010;2023-07-30T02:24:11;16.60;99.90
41310;DHT22;27057;51.438;-0.010;2023-07-30T02:26:39;16.70;99.90
41310;DHT22;27057;51.438;-0.010;2023-07-30T02:29:07;16.60;99.90
41310;DHT22;27057;51.438;-0.010;2023-07-30T02:31:34;16.60;99.90
41310;DHT22;27057;51.438;-0.010;2023-07-30T02:34:02;16.50;99.90
41310;DHT22;27057;51.438;-0.010;2023-07-30T02:36:30;16.50;99.90
41310;DHT22;27057;51.438;-0.010;2023-07-30T02:38:58;16.50;99.90
41310;DHT22;27057;51.438;-0.010;2023-07-30T02:41:25;16.50;99.90
41310;DHT22;27057;51.438;-0.010;2023-07-30T02:43:55;16.50;99.90
41310;DHT22;27057;51.438;-0.010;2023-07-30T02:46:23;16.50;99.90
41310;DHT22;27057;51.438;-0.010;2023-07-30T02:48:51;16.50;99.90
41310;DHT22;27057;51.438;-0.010;2023-07-30T02:51:21;16.60;99.90
41310;DHT22;27057;51.438;-0.010;2023-07-30T02:53:52;16.30;99.90
41310;DHT22;27057;51.438;-0.010;2023-07-30T02:56:21;17.20;99.90
41310;DHT22;27057;51.438;-0.010;2023-07-30T02:58:48;16.50;99.90
41310;DHT22;27057;51.438;-0.010;2023-07-30T03:01:16;16.50;99.90
41310;DHT22;27057;51.438;-0.010;2023-07-30T03:03:44;16.50;99.90
41310;DHT22;27057;51.438;-0.010;2023-07-30T03:06:12;16.50;99.90
41310;DHT22;27057;51.438;-0.010;2023-07-30T03:08:39;16.60;99.90
41310;DHT22;27057;51.438;-0.010;2023-07-30T03:11:06;16.50;99.90
41310;DHT22;27057;51.438;-0.010;2023-07-30T03:13:39;16.50;99.90
41310;DHT22;27057;51.438;-0.010;2023-07-30T03:16:07;16.50;99.90
41310;DHT22;27057;51.438;-0.010;2023-07-30T03:18:35;16.40;99.90
41310;DHT22;27057;51.438;-0.010;2023-07-30T03:21:03;16.40;99.90
41310;DHT22;27057;51.438;-0.010;2023-07-30T03:23:31;16.40;99.90
41310;DHT22;27057;51.438;-0.010;2023-07-30T03:26:04;16.40;99.90
41310;DHT22;27057;51.438;-0.010;2023-07-30T03:28:31;16.30;99.90
41310;DHT22;27057;51.438;-0.010;2023-07-30T03:30:59;16.20;99.90
41310;DHT22;27057;51.438;-0.010;2023-07-30T03:33:27;16.30;99.90
41310;DHT22;27057;51.438;-0.010;2023-07-30T03:35:54;16.30;99.90
41310;DHT22;27057;51.438;-0.010;2023-07-30T03:38:22;16.20;99.90
41310;DHT22;27057;51.438;-0.010;2023-07-30T03:40:50;16.20;99.90
41310;DHT22;27057;51.438;-0.010;2023-07-30T03:43:18;16.20;99.90
41310;DHT22;27057;51.438;-0.010;2023-07-30T03:45:45;16.10;99.90
41310;DHT22;27057;51.438;-0.010;2023-07-30T03:48:13;16.10;99.90
41310;DHT22;27057;51.438;-0.010;2023-07-30T03:50:42;16.10;99.90
41310;DHT22;27057;51.438;-0.010;2023-07-30T03:53:30;16.10;99.90
41310;DHT22;27057;51.438;-0.010;2023-07-30T03:56:23;16.10;99.90
41310;DHT22;27057;51.438;-0.010;2023-07-30T03:59:01;16.00;99.90
41310;DHT22;27057;51.438;-0.010;2023-07-30T04:01:32;16.20;99.90
41310;DHT22;27057;51.438;-0.010;2023-07-30T04:04:10;15.90;99.90
41310;DHT22;27057;51.438;-0.010;2023-07-30T04:06:42;15.90;99.90
41310;DHT22;27057;51.438;-0.010;2023-07-30T04:09:09;15.90;99.90
41310;DHT22;27057;51.438;-0.010;2023-07-30T04:11:38;15.90;99.90
41310;DHT22;27057;51.438;-0.010;2023-07-30T04:14:41;15.70;99.90
41310;DHT22;27057;51.438;-0.010;2023-07-30T04:17:09;15.80;99.90
41310;DHT22;27057;51.438;-0.010;2023-07-30T04:19:48;15.80;99.90
41310;DHT22;27057;51.438;-0.010;2023-07-30T04:22:22;15.80;99.90
41310;DHT22;27057;51.438;-0.010;2023-07-30T04:24:50;15.60;99.90
41310;DHT22;27057;51.438;-0.010;2023-07-30T04:27:17;15.80;99.90
41310;DHT22;27057;51.438;-0.010;2023-07-30T04:29:47;15.70;99.90
41310;DHT22;27057;51.438;-0.010;2023-07-30T04:32:15;15.50;99.90
41310;DHT22;27057;51.438;-0.010;2023-07-30T04:34:46;15.70;99.90
41310;DHT22;27057;51.438;-0.010;2023-07-30T04:37:14;15.50;99.90
41310;DHT22;27057;51.438;-0.010;2023-07-30T04:39:48;15.60;99.90
41310;DHT22;27057;51.438;-0.010;2023-07-30T04:42:17;15.60;99.90
41310;DHT22;27057;51.438;-0.010;2023-07-30T04:44:45;15.60;99.90
41310;DHT22;27057;51.438;-0.010;2023-07-30T04:47:15;15.80;99.90
41310;DHT22;27057;51.438;-0.010;2023-07-30T04:49:46;15.50;99.90
41310;DHT22;27057;51.438;-0.010;2023-07-30T04:52:17;15.60;99.90
41310;DHT22;27057;51.438;-0.010;2023-07-30T04:54:52;15.40;99.90
41310;DHT22;27057;51.438;-0.010;2023-07-30T04:57:20;15.50;99.90
41310;DHT22;27057;51.438;-0.010;2023-07-30T04:59:48;15.50;99.90
41310;DHT22;27057;51.438;-0.010;2023-07-30T05:02:36;15.50;99.90
41310;DHT22;27057;51.438;-0.010;2023-07-30T05:05:12;15.60;99.90
41310;DHT22;27057;51.438;-0.010;2023-07-30T05:07:40;15.30;99.90
41310;DHT22;27057;51.438;-0.010;2023-07-30T05:10:15;15.50;99.90
41310;DHT22;27057;51.438;-0.010;2023-07-30T05:12:43;15.50;99.90
41310;DHT22;27057;51.438;-0.010;2023-07-30T05:15:11;15.50;99.90
41310;DHT22;27057;51.438;-0.010;2023-07-30T05:17:54;15.50;99.90
41310;DHT22;27057;51.438;-0.010;2023-07-30T05:20:25;15.60;99.90
41310;DHT22;27057;51.438;-0.010;2023-07-30T05:22:53;15.60;99.90
41310;DHT22;27057;51.438;-0.010;2023-07-30T05:25:26;15.60;99.90
41310;DHT22;27057;51.438;-0.010;2023-07-30T05:28:06;15.60;99.90
41310;DHT22;27057;51.438;-0.010;2023-07-30T05:30:34;15.60;99.90
41310;DHT22;27057;51.438;-0.010;2023-07-30T05:33:16;15.60;99.90
41310;DHT22;27057;51.438;-0.010;2023-07-30T05:35:49;15.70;99.90
41310;DHT22;27057;51.438;-0.010;2023-07-30T05:38:37;15.50;99.90
41310;DHT22;27057;51.438;-0.010;2023-07-30T05:41:17;15.50;99.90
41310;DHT22;27057;51.438;-0.010;2023-07-30T05:43:45;15.80;99.90
41310;DHT22;27057;51.438;-0.010;2023-07-30T05:46:15;15.80;99.90
41310;DHT22;27057;51.438;-0.010;2023-07-30T05:48:43;15.90;99.90
41310;DHT22;27057;51.438;-0.010;2023-07-30T05:51:11;15.90;99.90
41310;DHT22;27057;51.438;-0.010;2023-07-30T05:53:47;15.90;99.90
41310;DHT22;27057;51.438;-0.010;2023-07-30T05:56:20;15.90;99.90
41310;DHT22;27057;51.438;-0.010;2023-07-30T05:58:48;15.90;99.90
41310;DHT22;27057;51.438;-0.010;2023-07-30T06:01:17;15.90;99.90
41310;DHT22;27057;51.438;-0.010;2023-07-30T06:03:49;15.90;99.90
41310;DHT22;27057;51.438;-0.010;2023-07-30T06:06:16;15.60;99.90
41310;DHT22;27057;51.438;-0.010;2023-07-30T06:08:44;15.90;99.90
41310;DHT22;27057;51.438;-0.010;2023-07-30T06:11:12;16.30;99.90
41310;DHT22;27057;51.438;-0.010;2023-07-30T06:13:43;15.90;99.90
41310;DHT22;27057;51.438;-0.010;2023-07-30T06:16:11;15.90;99.90
41310;DHT22;27057;51.438;-0.010;2023-07-30T06:18:38;16.20;99.90
41310;DHT22;27057;51.438;-0.010;2023-07-30T06:21:09;16.00;99.90
41310;DHT22;27057;51.438;-0.010;2023-07-30T06:23:37;16.10;99.90
41310;DHT22;27057;51.438;-0.010;2023-07-30T06:26:04;16.20;99.90
41310;DHT22;27057;51.438;-0.010;2023-07-30T06:28:32;15.10;99.90
41310;DHT22;27057;51.438;-0.010;2023-07-30T06:31:05;16.20;99.90
41310;DHT22;27057;51.438;-0.010;2023-07-30T06:33:35;16.30;99.90
41310;DHT22;27057;51.438;-0.010;2023-07-30T06:36:06;16.30;99.90
41310;DHT22;27057;51.438;-0.010;2023-07-30T06:38:33;16.40;99.90
41310;DHT22;27057;51.438;-0.010;2023-07-30T06:41:04;16.40;99.90
41310;DHT22;27057;51.438;-0.010;2023-07-30T06:43:32;17.00;99.90
41310;DHT22;27057;51.438;-0.010;2023-07-30T06:45:59;16.50;99.90
41310;DHT22;27057;51.438;-0.010;2023-07-30T06:48:27;16.60;99.90
41310;DHT22;27057;51.438;-0.010;2023-07-30T06:50:55;16.60;99.90
41310;DHT22;27057;51.438;-0.010;2023-07-30T06:53:22;16.60;99.90
41310;DHT22;27057;51.438;-0.010;2023-07-30T06:55:50;16.60;99.90
41310;DHT22;27057;51.438;-0.010;2023-07-30T06:58:17;16.70;99.90
41310;DHT22;27057;51.438;-0.010;2023-07-30T07:00:45;16.70;99.90
41310;DHT22;27057;51.438;-0.010;2023-07-30T07:03:13;16.70;99.90
41310;DHT22;27057;51.438;-0.010;2023-07-30T07:05:40;16.80;99.90
41310;DHT22;27057;51.438;-0.010;2023-07-30T07:08:11;16.90;99.90
41310;DHT22;27057;51.438;-0.010;2023-07-30T07:10:39;17.00;99.90
41310;DHT22;27057;51.438;-0.010;2023-07-30T07:13:06;17.00;99.90
41310;DHT22;27057;51.438;-0.010;2023-07-30T07:15:34;17.10;99.90
41310;DHT22;27057;51.438;-0.010;2023-07-30T07:18:01;17.10;99.90
41310;DHT22;27057;51.438;-0.010;2023-07-30T07:20:29;17.10;99.90
41310;DHT22;27057;51.438;-0.010;2023-07-30T07:22:56;17.20;99.90
41310;DHT22;27057;51.438;-0.010;2023-07-30T07:25:24;17.20;99.90
41310;DHT22;27057;51.438;-0.010;2023-07-30T07:27:54;17.30;99.90
41310;DHT22;27057;51.438;-0.010;2023-07-30T07:30:22;17.30;99.90
41310;DHT22;27057;51.438;-0.010;2023-07-30T07:32:50;17.60;99.90
41310;DHT22;27057;51.438;-0.010;2023-07-30T07:35:21;17.30;99.90
41310;DHT22;27057;51.438;-0.010;2023-07-30T07:37:49;17.30;99.90
41310;DHT22;27057;51.438;-0.010;2023-07-30T07:40:19;17.30;99.90
41310;DHT22;27057;51.438;-0.010;2023-07-30T07:42:47;17.30;99.90
41310;DHT22;27057;51.438;-0.010;2023-07-30T07:45:14;17.40;99.90
41310;DHT22;27057;51.438;-0.010;2023-07-30T07:47:43;17.40;99.90
41310;DHT22;27057;51.438;-0.010;2023-07-30T07:50:10;17.40;99.90
41310;DHT22;27057;51.438;-0.010;2023-07-30T07:52:44;17.50;99.90
41310;DHT22;27057;51.438;-0.010;2023-07-30T07:55:14;17.50;99.90
41310;DHT22;27057;51.438;-0.010;2023-07-30T07:57:42;17.60;99.90
41310;DHT22;27057;51.438;-0.010;2023-07-30T08:00:12;17.70;99.90
41310;DHT22;27057;51.438;-0.010;2023-07-30T08:02:41;17.80;99.90
41310;DHT22;27057;51.438;-0.010;2023-07-30T08:05:13;18.00;99.90
41310;DHT22;27057;51.438;-0.010;2023-07-30T08:07:41;17.90;99.90
41310;DHT22;27057;51.438;-0.010;2023-07-30T08:10:09;17.90;99.90
41310;DHT22;27057;51.438;-0.010;2023-07-30T08:12:39;18.00;99.90
41310;DHT22;27057;51.438;-0.010;2023-07-30T08:15:07;18.10;99.90
41310;DHT22;27057;51.438;-0.010;2023-07-30T08:17:38;18.20;99.90
41310;DHT22;27057;51.438;-0.010;2023-07-30T08:20:08;18.30;99.90
41310;DHT22;27057;51.438;-0.010;2023-07-30T08:22:36;18.30;99.90
41310;DHT22;27057;51.438;-0.010;2023-07-30T08:25:04;18.50;99.90
41310;DHT22;27057;51.438;-0.010;2023-07-30T08:27:32;18.30;99.90
41310;DHT22;27057;51.438;-0.010;2023-07-30T08:29:59;18.30;99.90
41310;DHT22;27057;51.438;-0.010;2023-07-30T08:32:27;18.30;99.90
41310;DHT22;27057;51.438;-0.010;2023-07-30T08:34:55;18.30;99.90
41310;DHT22;27057;51.438;-0.010;2023-07-30T08:37:22;18.50;99.90
41310;DHT22;27057;51.438;-0.010;2023-07-30T08:39:54;18.60;99.90
41310;DHT22;27057;51.438;-0.010;2023-07-30T08:42:22;18.60;99.90
41310;DHT22;27057;51.438;-0.010;2023-07-30T08:44:49;18.60;99.90
41310;DHT22;27057;51.438;-0.010;2023-07-30T08:47:17;18.70;99.90
41310;DHT22;27057;51.438;-0.010;2023-07-30T08:49:45;18.80;99.90
41310;DHT22;27057;51.438;-0.010;2023-07-30T08:52:13;18.80;99.90
41310;DHT22;27057;51.438;-0.010;2023-07-30T08:54:44;18.70;99.90
41310;DHT22;27057;51.438;-0.010;2023-07-30T08:57:20;18.80;99.90
41310;DHT22;27057;51.438;-0.010;2023-07-30T08:59:52;18.90;99.90
41310;DHT22;27057;51.438;-0.010;2023-07-30T09:02:52;18.90;99.90
41310;DHT22;27057;51.438;-0.010;2023-07-30T09:05:21;19.00;99.90
41310;DHT22;27057;51.438;-0.010;2023-07-30T09:07:50;19.10;99.90
41310;DHT22;27057;51.438;-0.010;2023-07-30T09:10:20;19.10;99.90
41310;DHT22;27057;51.438;-0.010;2023-07-30T09:12:55;19.20;99.90
41310;DHT22;27057;51.438;-0.010;2023-07-30T09:15:37;19.30;99.90
41310;DHT22;27057;51.438;-0.010;2023-07-30T09:18:06;19.30;99.90
41310;DHT22;27057;51.438;-0.010;2023-07-30T09:20:39;19.30;99.90
41310;DHT22;27057;51.438;-0.010;2023-07-30T09:23:08;19.20;99.90
41310;DHT22;27057;51.438;-0.010;2023-07-30T09:25:36;19.30;99.90
41310;DHT22;27057;51.438;-0.010;2023-07-30T09:28:06;19.30;99.90
41310;DHT22;27057;51.438;-0.010;2023-07-30T09:30:34;18.60;99.90
41310;DHT22;27057;51.438;-0.010;2023-07-30T09:33:01;19.40;99.90
41310;DHT22;27057;51.438;-0.010;2023-07-30T09:35:32;19.50;99.90
41310;DHT22;27057;51.438;-0.010;2023-07-30T09:38:02;19.60;99.90
41310;DHT22;27057;51.438;-0.010;2023-07-30T09:40:32;19.80;99.90
41310;DHT22;27057;51.438;-0.010;2023-07-30T09:43:00;19.70;99.90
41310;DHT22;27057;51.438;-0.010;2023-07-30T09:45:33;19.70;99.90
41310;DHT22;27057;51.438;-0.010;2023-07-30T09:48:05;19.70;99.90
41310;DHT22;27057;51.438;-0.010;2023-07-30T09:50:34;19.70;99.90
41310;DHT22;27057;51.438;-0.010;2023-07-30T09:53:02;19.80;99.90
41310;DHT22;27057;51.438;-0.010;2023-07-30T09:55:30;21.20;99.90
41310;DHT22;27057;51.438;-0.010;2023-07-30T09:57:58;20.20;99.90
41310;DHT22;27057;51.438;-0.010;2023-07-30T10:00:27;20.30;99.90
41310;DHT22;27057;51.438;-0.010;2023-07-30T10:02:58;20.40;99.90
41310;DHT22;27057;51.438;-0.010;2023-07-30T10:05:31;20.40;99.90
41310;DHT22;27057;51.438;-0.010;2023-07-30T10:08:04;20.50;99.90
41310;DHT22;27057;51.438;-0.010;2023-07-30T10:10:35;20.50;99.90
41310;DHT22;27057;51.438;-0.010;2023-07-30T10:13:07;20.50;99.90
41310;DHT22;27057;51.438;-0.010;2023-07-30T10:15:37;20.50;99.90
41310;DHT22;27057;51.438;-0.010;2023-07-30T10:18:05;20.50;99.90
41310;DHT22;27057;51.438;-0.010;2023-07-30T10:20:32;20.50;99.90
41310;DHT22;27057;51.438;-0.010;2023-07-30T10:23:01;20.50;99.90
41310;DHT22;27057;51.438;-0.010;2023-07-30T10:25:46;20.40;99.90
41310;DHT22;27057;51.438;-0.010;2023-07-30T10:28:33;20.30;99.90
41310;DHT22;27057;51.438;-0.010;2023-07-30T10:31:04;20.30;99.90
41310;DHT22;27057;51.438;-0.010;2023-07-30T10:33:47;20.30;99.90
41310;DHT22;27057;51.438;-0.010;2023-07-30T10:36:30;20.30;99.90
41310;DHT22;27057;51.438;-0.010;2023-07-30T10:39:13;20.30;99.90
41310;DHT22;27057;51.438;-0.010;2023-07-30T10:41:44;20.10;99.90
41310;DHT22;27057;51.438;-0.010;2023-07-30T10:46:53;19.70;99.90
41310;DHT22;27057;51.438;-0.010;2023-07-30T10:49:21;19.70;99.90
41310;DHT22;27057;51.438;-0.010;2023-07-30T10:51:51;19.70;99.90
41310;DHT22;27057;51.438;-0.010;2023-07-30T10:54:20;19.50;99.90
41310;DHT22;27057;51.438;-0.010;2023-07-30T10:56:54;19.40;99.90
41310;DHT22;27057;51.438;-0.010;2023-07-30T10:59:21;19.50;99.90
41310;DHT22;27057;51.438;-0.010;2023-07-30T11:01:50;19.80;99.90
41310;DHT22;27057;51.438;-0.010;2023-07-30T11:04:20;19.90;99.90
41310;DHT22;27057;51.438;-0.010;2023-07-30T11:06:51;20.10;99.90
41310;DHT22;27057;51.438;-0.010;2023-07-30T11:11:48;20.20;99.90
41310;DHT22;27057;51.438;-0.010;2023-07-30T11:14:17;20.30;99.90
41310;DHT22;27057;51.438;-0.010;2023-07-30T11:16:57;20.20;99.90
41310;DHT22;27057;51.438;-0.010;2023-07-30T11:19:28;20.30;99.90
41310;DHT22;27057;51.438;-0.010;2023-07-30T11:21:57;20.40;99.90
41310;DHT22;27057;51.438;-0.010;2023-07-30T11:24:35;20.50;99.90
41310;DHT22;27057;51.438;-0.010;2023-07-30T11:27:02;19.90;99.90
41310;DHT22;27057;51.438;-0.010;2023-07-30T11:29:30;20.40;99.90
41310;DHT22;27057;51.438;-0.010;2023-07-30T11:31:58;20.30;99.90
41310;DHT22;27057;51.438;-0.010;2023-07-30T11:34:27;20.20;99.90
41310;DHT22;27057;51.438;-0.010;2023-07-30T11:36:55;20.10;99.90
41310;DHT22;27057;51.438;-0.010;2023-07-30T11:39:24;20.00;99.90
41310;DHT22;27057;51.438;-0.010;2023-07-30T11:41:51;20.00;99.90
41310;DHT22;27057;51.438;-0.010;2023-07-30T11:44:30;19.90;99.90
41310;DHT22;27057;51.438;-0.010;2023-07-30T11:46:57;19.90;99.90
41310;DHT22;27057;51.438;-0.010;2023-07-30T11:49:25;19.80;99.90
41310;DHT22;27057;51.438;-0.010;2023-07-30T11:52:07;19.80;99.90
41310;DHT22;27057;51.438;-0.010;2023-07-30T11:54:36;19.80;99.90
41310;DHT22;27057;51.438;-0.010;2023-07-30T11:57:04;19.70;99.90
41310;DHT22;27057;51.438;-0.010;2023-07-30T11:59:32;19.60;99.90
41310;DHT22;27057;51.438;-0.010;2023-07-30T12:01:59;19.50;99.90
41310;DHT22;27057;51.438;-0.010;2023-07-30T12:04:42;19.40;99.90
41310;DHT22;27057;51.438;-0.010;2023-07-30T12:07:10;19.30;99.90
41310;DHT22;27057;51.438;-0.010;2023-07-30T12:09:37;19.20;99.90
41310;DHT22;27057;51.438;-0.010;2023-07-30T12:12:06;19.10;99.90
41310;DHT22;27057;51.438;-0.010;2023-07-30T12:17:19;19.00;99.90
41310;DHT22;27057;51.438;-0.010;2023-07-30T12:19:47;19.10;99.90
41310;DHT22;27057;51.438;-0.010;2023-07-30T12:22:15;19.20;99.90
41310;DHT22;27057;51.438;-0.010;2023-07-30T12:24:43;19.20;99.90
41310;DHT22;27057;51.438;-0.010;2023-07-30T12:27:18;19.20;99.90
41310;DHT22;27057;51.438;-0.010;2023-07-30T12:29:46;19.10;99.90
41310;DHT22;27057;51.438;-0.010;2023-07-30T12:32:14;19.10;99.90
41310;DHT22;27057;51.438;-0.010;2023-07-30T12:34:46;19.20;99.90
41310;DHT22;27057;51.438;-0.010;2023-07-30T12:37:16;19.30;99.90
41310;DHT22;27057;51.438;-0.010;2023-07-30T12:39:44;19.30;99.90
41310;DHT22;27057;51.438;-0.010;2023-07-30T12:42:11;19.30;99.90
41310;DHT22;27057;51.438;-0.010;2023-07-30T12:44:39;19.20;99.90
41310;DHT22;27057;51.438;-0.010;2023-07-30T12:47:07;19.20;99.90
41310;DHT22;27057;51.438;-0.010;2023-07-30T12:49:34;19.10;99.90
41310;DHT22;27057;51.438;-0.010;2023-07-30T12:52:02;19.10;99.90
41310;DHT22;27057;51.438;-0.010;2023-07-30T12:54:30;19.10;99.90
41310;DHT22;27057;51.438;-0.010;2023-07-30T12:56:57;19.10;99.90
41310;DHT22;27057;51.438;-0.010;2023-07-30T12:59:25;19.10;99.90
41310;DHT22;27057;51.438;-0.010;2023-07-30T13:01:52;19.10;99.90
41310;DHT22;27057;51.438;-0.010;2023-07-30T13:04:21;19.10;99.90
41310;DHT22;27057;51.438;-0.010;2023-07-30T13:06:49;19.10;99.90
41310;DHT22;27057;51.438;-0.010;2023-07-30T13:09:17;19.10;99.90
41310;DHT22;27057;51.438;-0.010;2023-07-30T13:11:45;19.10;99.90
41310;DHT22;27057;51.438;-0.010;2023-07-30T13:14:12;19.00;99.90
41310;DHT22;27057;51.438;-0.010;2023-07-30T13:16:40;19.00;99.90
41310;DHT22;27057;51.438;-0.010;2023-07-30T13:19:07;19.00;99.90
41310;DHT22;27057;51.438;-0.010;2023-07-30T13:21:38;19.00;99.90
41310;DHT22;27057;51.438;-0.010;2023-07-30T13:24:06;19.10;99.90
41310;DHT22;27057;51.438;-0.010;2023-07-30T13:26:35;19.10;99.90
41310;DHT22;27057;51.438;-0.010;2023-07-30T13:29:06;19.10;99.90
41310;DHT22;27057;51.438;-0.010;2023-07-30T13:31:33;19.20;99.90
41310;DHT22;27057;51.438;-0.010;2023-07-30T13:34:01;19.20;99.90
41310;DHT22;27057;51.438;-0.010;2023-07-30T13:36:28;19.20;99.90
41310;DHT22;27057;51.438;-0.010;2023-07-30T13:38:56;19.30;99.90
41310;DHT22;27057;51.438;-0.010;2023-07-30T13:41:23;19.30;99.90
41310;DHT22;27057;51.438;-0.010;2023-07-30T13:43:50;19.30;99.90
41310;DHT22;27057;51.438;-0.010;2023-07-30T13:46:21;19.30;99.90
41310;DHT22;27057;51.438;-0.010;2023-07-30T13:48:48;19.30;99.90
41310;DHT22;27057;51.438;-0.010;2023-07-30T13:51:16;19.40;99.90
41310;DHT22;27057;51.438;-0.010;2023-07-30T13:53:44;19.40;99.90
41310;DHT22;27057;51.438;-0.010;2023-07-30T13:56:12;19.50;99.90
41310;DHT22;27057;51.438;-0.010;2023-07-30T13:58:46;19.40;99.90
41310;DHT22;27057;51.438;-0.010;2023-07-30T14:01:13;19.50;99.90
41310;DHT22;27057;51.438;-0.010;2023-07-30T14:03:43;19.50;99.90
41310;DHT22;27057;51.438;-0.010;2023-07-30T14:06:11;19.40;99.90
41310;DHT22;27057;51.438;-0.010;2023-07-30T14:08:39;19.40;99.90
41310;DHT22;27057;51.438;-0.010;2023-07-30T14:11:09;19.30;99.90
41310;DHT22;27057;51.438;-0.010;2023-07-30T14:13:37;19.30;99.90
41310;DHT22;27057;51.438;-0.010;2023-07-30T14:16:04;19.20;99.90
41310;DHT22;27057;51.438;-0.010;2023-07-30T14:18:41;19.20;99.90
41310;DHT22;27057;51.438;-0.010;2023-07-30T14:21:08;19.10;99.90
41310;DHT22;27057;51.438;-0.010;2023-07-30T14:23:35;19.00;99.90
41310;DHT22;27057;51.438;-0.010;2023-07-30T14:26:03;18.90;99.90
41310;DHT22;27057;51.438;-0.010;2023-07-30T14:28:34;18.80;99.90
41310;DHT22;27057;51.438;-0.010;2023-07-30T14:31:01;18.80;99.90
41310;DHT22;27057;51.438;-0.010;2023-07-30T14:33:34;18.70;99.90
41310;DHT22;27057;51.438;-0.010;2023-07-30T14:36:03;18.60;99.90
41310;DHT22;27057;51.438;-0.010;2023-07-30T14:38:33;18.60;99.90
41310;DHT22;27057;51.438;-0.010;2023-07-30T14:41:01;18.50;99.90
41310;DHT22;27057;51.438;-0.010;2023-07-30T14:43:29;18.60;99.90
41310;DHT22;27057;51.438;-0.010;2023-07-30T14:45:57;18.50;99.90
41310;DHT22;27057;51.438;-0.010;2023-07-30T14:48:25;18.40;99.90
41310;DHT22;27057;51.438;-0.010;2023-07-30T14:50:52;18.40;99.90
41310;DHT22;27057;51.438;-0.010;2023-07-30T14:53:20;18.40;99.90
41310;DHT22;27057;51.438;-0.010;2023-07-30T14:55:48;18.50;99.90
41310;DHT22;27057;51.438;-0.010;2023-07-30T14:58:16;18.50;99.90
41310;DHT22;27057;51.438;-0.010;2023-07-30T15:00:46;18.60;99.90
41310;DHT22;27057;51.438;-0.010;2023-07-30T15:03:14;18.40;99.90
41310;DHT22;27057;51.438;-0.010;2023-07-30T15:05:41;18.60;99.90
41310;DHT22;27057;51.438;-0.010;2023-07-30T15:08:09;18.50;99.90
41310;DHT22;27057;51.438;-0.010;2023-07-30T15:10:36;18.50;99.90
41310;DHT22;27057;51.438;-0.010;2023-07-30T15:13:04;19.00;99.90
41310;DHT22;27057;51.438;-0.010;2023-07-30T15:15:32;18.40;99.90
41310;DHT22;27057;51.438;-0.010;2023-07-30T15:17:59;18.30;99.90
41310;DHT22;27057;51.438;-0.010;2023-07-30T15:20:30;18.30;99.90
41310;DHT22;27057;51.438;-0.010;2023-07-30T15:23:00;18.20;99.90
41310;DHT22;27057;51.438;-0.010;2023-07-30T15:25:28;18.20;99.90
41310;DHT22;27057;51.438;-0.010;2023-07-30T15:27:56;18.30;99.90
41310;DHT22;27057;51.438;-0.010;2023-07-30T15:30:25;18.10;99.90
41310;DHT22;27057;51.438;-0.010;2023-07-30T15:32:53;18.10;99.90
41310;DHT22;27057;51.438;-0.010;2023-07-30T15:35:20;18.10;99.90
41310;DHT22;27057;51.438;-0.010;2023-07-30T15:37:48;18.10;99.90
41310;DHT22;27057;51.438;-0.010;2023-07-30T15:40:16;18.20;99.90
41310;DHT22;27057;51.438;-0.010;2023-07-30T15:42:44;18.20;99.90
41310;DHT22;27057;51.438;-0.010;2023-07-30T15:45:11;18.10;99.90